sensor_id;sensor_type;location;lat;lon;timestamp;pressure;altitude;pressure_sealevel;temperature;humidity
61528;BME280;47395;42.032;-8.634;2023-03-19T00:00:28;101725.44;;;14.57;75.18
61528;BME280;47395;42.032;-8.634;2023-03-19T00:02:29;101718.72;;;14.49;75.10
61528;BME280;47395;42.032;-8.634;2023-03-19T00:04:32;101722.22;;;14.50;75.42
61528;BME280;47395;42.032;-8.634;2023-03-19T00:06:33;101716.47;;;14.59;75.12
61528;BME280;47395;42.032;-8.634;2023-03-19T00:08:34;101718.09;;;14.44;75.71
61528;BME280;47395;42.032;-8.634;2023-03-19T00:10:38;101715.84;;;14.54;76.04
61528;BME280;47395;42.032;-8.634;2023-03-19T00:12:39;101720.97;;;14.57;75.74
61528;BME280;47395;42.032;-8.634;2023-03-19T00:14:40;101710.22;;;14.60;75.82
61528;BME280;47395;42.032;-8.634;2023-03-19T00:16:41;101712.66;;;14.65;75.76
61528;BME280;47395;42.032;-8.634;2023-03-19T00:18:42;101709.53;;;14.74;75.88
61528;BME280;47395;42.032;-8.634;2023-03-19T00:20:43;101712.75;;;14.81;75.58
61528;BME280;47395;42.032;-8.634;2023-03-19T00:22:45;101703.78;;;14.84;75.67
61528;BME280;47395;42.032;-8.634;2023-03-19T00:24:46;101708.69;;;14.92;75.48
61528;BME280;47395;42.032;-8.634;2023-03-19T00:26:47;101714.38;;;15.01;75.14
61528;BME280;47395;42.032;-8.634;2023-03-19T00:28:48;101712.06;;;14.95;74.87
61528;BME280;47395;42.032;-8.634;2023-03-19T00:30:49;101718.91;;;14.82;75.22
61528;BME280;47395;42.032;-8.634;2023-03-19T00:32:50;101714.28;;;14.68;76.08
61528;BME280;47395;42.032;-8.634;2023-03-19T00:34:51;101708.31;;;14.27;76.96
61528;BME280;47395;42.032;-8.634;2023-03-19T00:36:52;101707.78;;;14.38;76.72
61528;BME280;47395;42.032;-8.634;2023-03-19T00:38:53;101703.03;;;14.45;76.31
61528;BME280;47395;42.032;-8.634;2023-03-19T00:40:54;101705.75;;;14.43;76.47
61528;BME280;47395;42.032;-8.634;2023-03-19T00:42:55;101698.34;;;14.32;76.47
61528;BME280;47395;42.032;-8.634;2023-03-19T00:44:56;101699.97;;;14.35;76.58
61528;BME280;47395;42.032;-8.634;2023-03-19T00:46:58;101704.47;;;14.33;76.82
61528;BME280;47395;42.032;-8.634;2023-03-19T00:48:59;101694.81;;;14.32;76.76
61528;BME280;47395;42.032;-8.634;2023-03-19T00:51:08;101698.47;;;14.29;76.71
61528;BME280;47395;42.032;-8.634;2023-03-19T00:53:09;101703.63;;;14.32;76.76
61528;BME280;47395;42.032;-8.634;2023-03-19T00:55:10;101698.78;;;14.23;76.89
61528;BME280;47395;42.032;-8.634;2023-03-19T00:57:11;101691.19;;;14.15;77.09
61528;BME280;47395;42.032;-8.634;2023-03-19T00:59:14;101694.16;;;14.09;77.38
61528;BME280;47395;42.032;-8.634;2023-03-19T01:01:16;101695.38;;;14.02;77.55
61528;BME280;47395;42.032;-8.634;2023-03-19T01:03:19;101694.72;;;13.96;77.79
61528;BME280;47395;42.032;-8.634;2023-03-19T01:05:22;101697.69;;;13.90;77.78
61528;BME280;47395;42.032;-8.634;2023-03-19T01:07:22;101683.25;;;13.78;78.16
61528;BME280;47395;42.032;-8.634;2023-03-19T01:09:23;101687.72;;;13.57;78.80
61528;BME280;47395;42.032;-8.634;2023-03-19T01:11:24;101686.41;;;13.47;79.77
61528;BME280;47395;42.032;-8.634;2023-03-19T01:13:25;101695.66;;;13.38;80.08
61528;BME280;47395;42.032;-8.634;2023-03-19T01:15:26;101695.13;;;13.29;80.56
61528;BME280;47395;42.032;-8.634;2023-03-19T01:17:27;101697.34;;;13.39;80.36
61528;BME280;47395;42.032;-8.634;2023-03-19T01:19:28;101701.31;;;13.28;80.57
61528;BME280;47395;42.032;-8.634;2023-03-19T01:21:29;101702.31;;;13.26;80.99
61528;BME280;47395;42.032;-8.634;2023-03-19T01:23:30;101703.72;;;13.35;80.56
61528;BME280;47395;42.032;-8.634;2023-03-19T01:25:33;101703.44;;;13.41;80.14
61528;BME280;47395;42.032;-8.634;2023-03-19T01:27:39;101708.78;;;13.39;80.39
61528;BME280;47395;42.032;-8.634;2023-03-19T01:29:40;101693.84;;;13.38;80.28
61528;BME280;47395;42.032;-8.634;2023-03-19T01:31:53;101704.84;;;13.29;80.25
61528;BME280;47395;42.032;-8.634;2023-03-19T01:34:15;101705.13;;;13.23;80.47
61528;BME280;47395;42.032;-8.634;2023-03-19T01:36:23;101705.78;;;13.28;80.44
61528;BME280;47395;42.032;-8.634;2023-03-19T01:38:44;101704.31;;;13.21;80.47
61528;BME280;47395;42.032;-8.634;2023-03-19T01:40:49;101700.66;;;13.23;80.71
61528;BME280;47395;42.032;-8.634;2023-03-19T01:42:54;101704.19;;;13.24;80.32
61528;BME280;47395;42.032;-8.634;2023-03-19T01:45:36;101710.78;;;13.34;80.42
61528;BME280;47395;42.032;-8.634;2023-03-19T01:47:56;101704.41;;;13.59;79.45
61528;BME280;47395;42.032;-8.634;2023-03-19T01:50:43;101701.34;;;13.68;78.48
61528;BME280;47395;42.032;-8.634;2023-03-19T01:53:09;101705.94;;;13.65;77.97
61528;BME280;47395;42.032;-8.634;2023-03-19T01:55:24;101700.13;;;13.56;77.89
61528;BME280;47395;42.032;-8.634;2023-03-19T01:58:01;101698.94;;;13.43;77.95
61528;BME280;47395;42.032;-8.634;2023-03-19T02:00:21;101693.19;;;13.33;78.22
61528;BME280;47395;42.032;-8.634;2023-03-19T02:02:33;101694.72;;;13.18;77.94
61528;BME280;47395;42.032;-8.634;2023-03-19T02:04:51;101689.59;;;12.94;78.64
61528;BME280;47395;42.032;-8.634;2023-03-19T02:06:54;101688.53;;;12.98;78.45
61528;BME280;47395;42.032;-8.634;2023-03-19T02:08:56;101691.25;;;12.97;78.11
61528;BME280;47395;42.032;-8.634;2023-03-19T02:10:59;101687.94;;;12.91;78.45
61528;BME280;47395;42.032;-8.634;2023-03-19T02:13:02;101688.53;;;12.98;78.57
61528;BME280;47395;42.032;-8.634;2023-03-19T02:15:04;101676.19;;;12.78;79.13
61528;BME280;47395;42.032;-8.634;2023-03-19T02:17:05;101676.03;;;12.81;78.93
61528;BME280;47395;42.032;-8.634;2023-03-19T02:19:21;101681.66;;;12.73;79.22
61528;BME280;47395;42.032;-8.634;2023-03-19T02:21:26;101682.19;;;12.82;79.26
61528;BME280;47395;42.032;-8.634;2023-03-19T02:24:02;101680.00;;;12.91;78.66
61528;BME280;47395;42.032;-8.634;2023-03-19T02:26:23;101685.69;;;13.03;78.29
61528;BME280;47395;42.032;-8.634;2023-03-19T02:28:25;101676.81;;;13.04;78.58
61528;BME280;47395;42.032;-8.634;2023-03-19T02:30:31;101679.13;;;13.12;78.18
61528;BME280;47395;42.032;-8.634;2023-03-19T02:32:37;101689.66;;;13.13;78.23
61528;BME280;47395;42.032;-8.634;2023-03-19T02:34:39;101681.56;;;13.16;78.18
61528;BME280;47395;42.032;-8.634;2023-03-19T02:36:46;101685.28;;;13.12;78.24
61528;BME280;47395;42.032;-8.634;2023-03-19T02:38:49;101679.44;;;13.25;78.08
61528;BME280;47395;42.032;-8.634;2023-03-19T02:41:00;101680.25;;;13.06;78.45
61528;BME280;47395;42.032;-8.634;2023-03-19T02:43:01;101679.19;;;13.10;78.51
61528;BME280;47395;42.032;-8.634;2023-03-19T02:45:02;101677.41;;;13.11;78.34
61528;BME280;47395;42.032;-8.634;2023-03-19T02:47:03;101678.13;;;13.14;78.20
61528;BME280;47395;42.032;-8.634;2023-03-19T02:49:05;101665.84;;;13.13;78.26
61528;BME280;47395;42.032;-8.634;2023-03-19T02:51:06;101670.84;;;13.19;78.03
61528;BME280;47395;42.032;-8.634;2023-03-19T02:53:07;101664.69;;;13.19;77.83
61528;BME280;47395;42.032;-8.634;2023-03-19T02:55:08;101669.28;;;13.15;78.13
61528;BME280;47395;42.032;-8.634;2023-03-19T02:57:09;101667.50;;;13.16;78.40
61528;BME280;47395;42.032;-8.634;2023-03-19T02:59:09;101664.84;;;13.16;77.96
61528;BME280;47395;42.032;-8.634;2023-03-19T03:01:10;101661.81;;;13.44;77.71
61528;BME280;47395;42.032;-8.634;2023-03-19T03:03:11;101668.06;;;13.23;77.40
61528;BME280;47395;42.032;-8.634;2023-03-19T03:05:13;101665.59;;;13.39;77.73
61528;BME280;47395;42.032;-8.634;2023-03-19T03:07:14;101668.56;;;13.52;77.21
61528;BME280;47395;42.032;-8.634;2023-03-19T03:09:15;101665.34;;;13.64;76.61
61528;BME280;47395;42.032;-8.634;2023-03-19T03:11:17;101662.91;;;13.60;76.31
61528;BME280;47395;42.032;-8.634;2023-03-19T03:13:17;101656.03;;;13.75;75.87
61528;BME280;47395;42.032;-8.634;2023-03-19T03:15:18;101654.81;;;13.63;76.53
61528;BME280;47395;42.032;-8.634;2023-03-19T03:17:19;101653.75;;;13.67;76.12
61528;BME280;47395;42.032;-8.634;2023-03-19T03:19:20;101655.38;;;13.69;76.05
61528;BME280;47395;42.032;-8.634;2023-03-19T03:21:21;101651.03;;;13.68;76.43
61528;BME280;47395;42.032;-8.634;2023-03-19T03:23:22;101654.88;;;13.61;76.48
61528;BME280;47395;42.032;-8.634;2023-03-19T03:25:23;101651.91;;;13.50;77.01
61528;BME280;47395;42.032;-8.634;2023-03-19T03:27:24;101654.25;;;13.35;77.44
61528;BME280;47395;42.032;-8.634;2023-03-19T03:29:24;101649.34;;;13.06;77.05
61528;BME280;47395;42.032;-8.634;2023-03-19T03:31:25;101647.63;;;13.26;78.19
61528;BME280;47395;42.032;-8.634;2023-03-19T03:33:27;101634.53;;;13.23;77.97
61528;BME280;47395;42.032;-8.634;2023-03-19T03:35:28;101647.25;;;13.34;78.20
61528;BME280;47395;42.032;-8.634;2023-03-19T03:37:29;101645.13;;;13.42;77.45
61528;BME280;47395;42.032;-8.634;2023-03-19T03:39:31;101646.13;;;13.40;77.29
61528;BME280;47395;42.032;-8.634;2023-03-19T03:41:32;101644.06;;;13.47;76.93
61528;BME280;47395;42.032;-8.634;2023-03-19T03:43:34;101651.34;;;13.41;76.70
61528;BME280;47395;42.032;-8.634;2023-03-19T03:45:35;101654.50;;;13.30;76.74
61528;BME280;47395;42.032;-8.634;2023-03-19T03:47:37;101655.09;;;13.16;76.49
61528;BME280;47395;42.032;-8.634;2023-03-19T03:49:39;101660.28;;;13.19;76.54
61528;BME280;47395;42.032;-8.634;2023-03-19T03:51:40;101666.63;;;13.15;76.75
61528;BME280;47395;42.032;-8.634;2023-03-19T03:53:42;101662.53;;;13.08;76.87
61528;BME280;47395;42.032;-8.634;2023-03-19T03:55:43;101656.06;;;12.95;76.75
61528;BME280;47395;42.032;-8.634;2023-03-19T03:57:44;101665.84;;;12.92;77.25
61528;BME280;47395;42.032;-8.634;2023-03-19T03:59:45;101665.03;;;12.90;77.33
61528;BME280;47395;42.032;-8.634;2023-03-19T04:01:46;101665.34;;;12.84;77.18
61528;BME280;47395;42.032;-8.634;2023-03-19T04:03:47;101664.28;;;12.88;76.84
61528;BME280;47395;42.032;-8.634;2023-03-19T04:05:50;101653.44;;;12.74;76.79
61528;BME280;47395;42.032;-8.634;2023-03-19T04:07:51;101659.25;;;12.61;77.43
61528;BME280;47395;42.032;-8.634;2023-03-19T04:09:53;101664.94;;;12.52;77.44
61528;BME280;47395;42.032;-8.634;2023-03-19T04:11:56;101675.00;;;12.42;77.16
61528;BME280;47395;42.032;-8.634;2023-03-19T04:13:57;101670.66;;;11.96;78.38
61528;BME280;47395;42.032;-8.634;2023-03-19T04:15:58;101686.50;;;11.96;79.26
61528;BME280;47395;42.032;-8.634;2023-03-19T04:18:00;101682.72;;;12.02;79.33
61528;BME280;47395;42.032;-8.634;2023-03-19T04:20:02;101697.19;;;12.16;79.44
61528;BME280;47395;42.032;-8.634;2023-03-19T04:22:04;101690.19;;;12.14;79.52
61528;BME280;47395;42.032;-8.634;2023-03-19T04:24:07;101707.28;;;12.28;79.14
61528;BME280;47395;42.032;-8.634;2023-03-19T04:26:10;101704.25;;;12.37;78.76
61528;BME280;47395;42.032;-8.634;2023-03-19T04:28:11;101704.88;;;12.44;78.70
61528;BME280;47395;42.032;-8.634;2023-03-19T04:30:13;101713.16;;;12.57;78.40
61528;BME280;47395;42.032;-8.634;2023-03-19T04:32:15;101709.53;;;12.60;78.19
61528;BME280;47395;42.032;-8.634;2023-03-19T04:34:16;101706.44;;;12.71;78.43
61528;BME280;47395;42.032;-8.634;2023-03-19T04:36:17;101705.94;;;12.83;78.02
61528;BME280;47395;42.032;-8.634;2023-03-19T04:38:18;101704.66;;;12.92;78.11
61528;BME280;47395;42.032;-8.634;2023-03-19T04:40:19;101709.44;;;13.04;77.61
61528;BME280;47395;42.032;-8.634;2023-03-19T04:42:21;101701.50;;;13.04;77.43
61528;BME280;47395;42.032;-8.634;2023-03-19T04:44:32;101704.31;;;13.00;77.36
61528;BME280;47395;42.032;-8.634;2023-03-19T04:46:35;101712.41;;;12.97;77.55
61528;BME280;47395;42.032;-8.634;2023-03-19T04:48:36;101709.50;;;13.03;77.30
61528;BME280;47395;42.032;-8.634;2023-03-19T04:50:39;101714.25;;;13.15;76.84
61528;BME280;47395;42.032;-8.634;2023-03-19T04:52:40;101712.38;;;13.17;76.85
61528;BME280;47395;42.032;-8.634;2023-03-19T04:54:41;101714.91;;;13.21;76.89
61528;BME280;47395;42.032;-8.634;2023-03-19T04:56:42;101711.00;;;13.29;76.48
61528;BME280;47395;42.032;-8.634;2023-03-19T04:58:44;101715.34;;;13.30;76.40
61528;BME280;47395;42.032;-8.634;2023-03-19T05:00:45;101715.44;;;13.29;76.41
61528;BME280;47395;42.032;-8.634;2023-03-19T05:05:13;101727.13;;;13.23;76.67
61528;BME280;47395;42.032;-8.634;2023-03-19T05:07:14;101730.59;;;13.25;76.59
61528;BME280;47395;42.032;-8.634;2023-03-19T05:09:16;101728.13;;;13.41;76.19
61528;BME280;47395;42.032;-8.634;2023-03-19T05:11:17;101731.69;;;13.40;76.21
61528;BME280;47395;42.032;-8.634;2023-03-19T05:13:39;101735.59;;;13.52;75.98
61528;BME280;47395;42.032;-8.634;2023-03-19T05:15:42;101736.38;;;13.54;75.97
61528;BME280;47395;42.032;-8.634;2023-03-19T05:17:45;101731.09;;;13.54;76.03
61528;BME280;47395;42.032;-8.634;2023-03-19T05:19:50;101742.19;;;13.63;75.84
61528;BME280;47395;42.032;-8.634;2023-03-19T05:21:53;101740.47;;;13.62;75.83
61528;BME280;47395;42.032;-8.634;2023-03-19T05:23:57;101741.84;;;13.51;76.06
61528;BME280;47395;42.032;-8.634;2023-03-19T05:25:59;101740.09;;;13.50;75.83
61528;BME280;47395;42.032;-8.634;2023-03-19T05:28:20;101740.22;;;13.47;76.34
61528;BME280;47395;42.032;-8.634;2023-03-19T05:30:21;101736.78;;;13.45;75.87
61528;BME280;47395;42.032;-8.634;2023-03-19T05:32:37;101746.53;;;13.44;76.14
61528;BME280;47395;42.032;-8.634;2023-03-19T05:34:45;101747.03;;;13.53;75.96
61528;BME280;47395;42.032;-8.634;2023-03-19T05:36:47;101753.00;;;13.58;75.80
61528;BME280;47395;42.032;-8.634;2023-03-19T05:38:52;101753.84;;;13.58;75.58
61528;BME280;47395;42.032;-8.634;2023-03-19T05:41:03;101753.50;;;13.66;75.75
61528;BME280;47395;42.032;-8.634;2023-03-19T05:43:14;101757.09;;;13.65;75.88
61528;BME280;47395;42.032;-8.634;2023-03-19T05:45:16;101755.25;;;13.67;75.73
61528;BME280;47395;42.032;-8.634;2023-03-19T05:47:23;101758.59;;;13.71;75.40
61528;BME280;47395;42.032;-8.634;2023-03-19T05:49:28;101754.84;;;13.56;75.74
61528;BME280;47395;42.032;-8.634;2023-03-19T05:51:29;101756.56;;;13.57;75.96
61528;BME280;47395;42.032;-8.634;2023-03-19T05:53:30;101759.03;;;13.62;75.83
61528;BME280;47395;42.032;-8.634;2023-03-19T05:55:49;101749.38;;;13.61;75.88
61528;BME280;47395;42.032;-8.634;2023-03-19T05:57:52;101756.50;;;13.58;75.70
61528;BME280;47395;42.032;-8.634;2023-03-19T05:59:58;101752.06;;;13.59;75.69
61528;BME280;47395;42.032;-8.634;2023-03-19T06:02:08;101754.72;;;13.59;75.68
61528;BME280;47395;42.032;-8.634;2023-03-19T06:04:11;101757.63;;;13.53;76.12
61528;BME280;47395;42.032;-8.634;2023-03-19T06:06:12;101758.50;;;13.53;75.81
61528;BME280;47395;42.032;-8.634;2023-03-19T06:08:17;101762.84;;;13.54;75.67
61528;BME280;47395;42.032;-8.634;2023-03-19T06:10:37;101764.06;;;13.47;76.07
61528;BME280;47395;42.032;-8.634;2023-03-19T06:12:43;101765.06;;;13.44;75.99
61528;BME280;47395;42.032;-8.634;2023-03-19T06:14:57;101770.22;;;13.48;75.83
61528;BME280;47395;42.032;-8.634;2023-03-19T06:17:16;101766.16;;;13.39;76.49
61528;BME280;47395;42.032;-8.634;2023-03-19T06:19:21;101764.13;;;13.45;76.39
61528;BME280;47395;42.032;-8.634;2023-03-19T06:21:22;101764.38;;;13.39;75.55
61528;BME280;47395;42.032;-8.634;2023-03-19T06:23:30;101766.00;;;13.42;76.21
61528;BME280;47395;42.032;-8.634;2023-03-19T06:25:31;101767.16;;;13.36;76.01
61528;BME280;47395;42.032;-8.634;2023-03-19T06:27:31;101766.63;;;13.49;75.59
61528;BME280;47395;42.032;-8.634;2023-03-19T06:29:45;101755.97;;;13.50;74.99
61528;BME280;47395;42.032;-8.634;2023-03-19T06:31:58;101759.31;;;13.55;74.68
61528;BME280;47395;42.032;-8.634;2023-03-19T06:34:12;101765.97;;;13.64;75.27
61528;BME280;47395;42.032;-8.634;2023-03-19T06:36:16;101765.25;;;13.61;74.21
61528;BME280;47395;42.032;-8.634;2023-03-19T06:38:17;101771.06;;;13.69;74.82
61528;BME280;47395;42.032;-8.634;2023-03-19T06:40:18;101764.84;;;13.89;75.08
61528;BME280;47395;42.032;-8.634;2023-03-19T06:42:20;101767.47;;;13.70;74.04
61528;BME280;47395;42.032;-8.634;2023-03-19T06:44:22;101766.13;;;13.80;74.05
61528;BME280;47395;42.032;-8.634;2023-03-19T06:46:24;101764.47;;;13.38;73.90
61528;BME280;47395;42.032;-8.634;2023-03-19T06:48:25;101762.22;;;13.49;74.07
61528;BME280;47395;42.032;-8.634;2023-03-19T06:50:26;101763.00;;;13.30;75.18
61528;BME280;47395;42.032;-8.634;2023-03-19T06:52:27;101753.66;;;13.42;75.04
61528;BME280;47395;42.032;-8.634;2023-03-19T06:54:28;101742.63;;;13.12;76.17
61528;BME280;47395;42.032;-8.634;2023-03-19T06:56:32;101731.94;;;13.34;75.46
61528;BME280;47395;42.032;-8.634;2023-03-19T06:58:33;101726.31;;;13.42;74.96
61528;BME280;47395;42.032;-8.634;2023-03-19T07:00:35;101730.53;;;13.46;74.51
61528;BME280;47395;42.032;-8.634;2023-03-19T07:02:36;101717.66;;;13.59;74.35
61528;BME280;47395;42.032;-8.634;2023-03-19T07:04:37;101715.00;;;13.59;73.89
61528;BME280;47395;42.032;-8.634;2023-03-19T07:06:38;101723.97;;;13.76;73.29
61528;BME280;47395;42.032;-8.634;2023-03-19T07:08:39;101729.94;;;13.20;74.49
61528;BME280;47395;42.032;-8.634;2023-03-19T07:10:45;101729.38;;;13.32;74.06
61528;BME280;47395;42.032;-8.634;2023-03-19T07:12:47;101728.72;;;13.27;75.10
61528;BME280;47395;42.032;-8.634;2023-03-19T07:14:48;101747.06;;;13.32;75.55
61528;BME280;47395;42.032;-8.634;2023-03-19T07:16:49;101745.06;;;13.37;75.63
61528;BME280;47395;42.032;-8.634;2023-03-19T07:18:50;101748.34;;;13.42;75.29
61528;BME280;47395;42.032;-8.634;2023-03-19T07:20:51;101739.53;;;13.42;75.03
61528;BME280;47395;42.032;-8.634;2023-03-19T07:22:52;101754.00;;;13.55;74.70
61528;BME280;47395;42.032;-8.634;2023-03-19T07:24:54;101745.91;;;13.58;74.59
61528;BME280;47395;42.032;-8.634;2023-03-19T07:26:55;101762.94;;;13.53;74.80
61528;BME280;47395;42.032;-8.634;2023-03-19T07:28:56;101763.72;;;13.55;74.50
61528;BME280;47395;42.032;-8.634;2023-03-19T07:30:57;101761.34;;;13.49;73.67
61528;BME280;47395;42.032;-8.634;2023-03-19T07:32:58;101761.34;;;13.49;74.49
61528;BME280;47395;42.032;-8.634;2023-03-19T07:34:58;101766.16;;;13.60;73.59
61528;BME280;47395;42.032;-8.634;2023-03-19T07:37:00;101761.09;;;13.55;73.65
61528;BME280;47395;42.032;-8.634;2023-03-19T07:39:01;101765.19;;;13.81;74.06
61528;BME280;47395;42.032;-8.634;2023-03-19T07:41:02;101758.16;;;13.40;73.35
61528;BME280;47395;42.032;-8.634;2023-03-19T07:43:03;101768.09;;;13.56;73.66
61528;BME280;47395;42.032;-8.634;2023-03-19T07:45:05;101757.63;;;13.53;73.58
61528;BME280;47395;42.032;-8.634;2023-03-19T07:47:06;101758.78;;;13.66;73.09
61528;BME280;47395;42.032;-8.634;2023-03-19T07:49:07;101758.19;;;14.00;73.36
61528;BME280;47395;42.032;-8.634;2023-03-19T07:51:08;101751.72;;;14.25;71.74
61528;BME280;47395;42.032;-8.634;2023-03-19T07:53:09;101749.28;;;14.20;70.51
61528;BME280;47395;42.032;-8.634;2023-03-19T07:55:10;101745.78;;;14.56;70.92
61528;BME280;47395;42.032;-8.634;2023-03-19T07:57:11;101750.91;;;14.79;69.93
61528;BME280;47395;42.032;-8.634;2023-03-19T07:59:12;101758.94;;;14.95;68.93
61528;BME280;47395;42.032;-8.634;2023-03-19T08:01:13;101755.44;;;14.94;68.10
61528;BME280;47395;42.032;-8.634;2023-03-19T08:03:14;101754.63;;;15.45;67.57
61528;BME280;47395;42.032;-8.634;2023-03-19T08:05:15;101743.31;;;15.24;66.96
61528;BME280;47395;42.032;-8.634;2023-03-19T08:07:16;101752.41;;;15.53;67.54
61528;BME280;47395;42.032;-8.634;2023-03-19T08:09:17;101748.47;;;15.61;67.17
61528;BME280;47395;42.032;-8.634;2023-03-19T08:11:18;101744.28;;;16.07;66.02
61528;BME280;47395;42.032;-8.634;2023-03-19T08:13:18;101744.84;;;16.44;64.05
61528;BME280;47395;42.032;-8.634;2023-03-19T08:15:19;101755.53;;;16.58;63.83
61528;BME280;47395;42.032;-8.634;2023-03-19T08:17:20;101756.75;;;16.37;64.72
61528;BME280;47395;42.032;-8.634;2023-03-19T08:19:21;101764.34;;;16.28;64.47
61528;BME280;47395;42.032;-8.634;2023-03-19T08:21:22;101762.59;;;16.11;64.92
61528;BME280;47395;42.032;-8.634;2023-03-19T08:23:23;101776.59;;;15.81;65.24
61528;BME280;47395;42.032;-8.634;2023-03-19T08:25:24;101779.75;;;15.72;65.55
61528;BME280;47395;42.032;-8.634;2023-03-19T08:27:26;101781.06;;;15.98;65.28
61528;BME280;47395;42.032;-8.634;2023-03-19T08:29:28;101781.47;;;15.73;65.80
61528;BME280;47395;42.032;-8.634;2023-03-19T08:31:29;101789.06;;;15.81;65.80
61528;BME280;47395;42.032;-8.634;2023-03-19T08:33:30;101797.47;;;15.89;65.73
61528;BME280;47395;42.032;-8.634;2023-03-19T08:35:31;101796.50;;;16.08;64.91
61528;BME280;47395;42.032;-8.634;2023-03-19T08:37:32;101792.38;;;16.18;65.07
61528;BME280;47395;42.032;-8.634;2023-03-19T08:39:32;101793.19;;;15.86;63.60
61528;BME280;47395;42.032;-8.634;2023-03-19T08:41:34;101802.66;;;16.08;64.75
61528;BME280;47395;42.032;-8.634;2023-03-19T08:43:36;101795.34;;;16.60;63.28
61528;BME280;47395;42.032;-8.634;2023-03-19T08:45:37;101791.72;;;16.61;63.06
61528;BME280;47395;42.032;-8.634;2023-03-19T08:47:38;101797.28;;;16.42;62.91
61528;BME280;47395;42.032;-8.634;2023-03-19T08:49:39;101798.97;;;16.90;62.66
61528;BME280;47395;42.032;-8.634;2023-03-19T08:51:40;101798.75;;;16.78;60.74
61528;BME280;47395;42.032;-8.634;2023-03-19T08:53:41;101801.66;;;17.20;60.89
61528;BME280;47395;42.032;-8.634;2023-03-19T08:55:42;101802.84;;;17.89;60.02
61528;BME280;47395;42.032;-8.634;2023-03-19T08:57:43;101801.41;;;18.55;57.65
61528;BME280;47395;42.032;-8.634;2023-03-19T08:59:44;101794.66;;;18.76;56.42
61528;BME280;47395;42.032;-8.634;2023-03-19T09:01:48;101794.31;;;19.09;54.64
61528;BME280;47395;42.032;-8.634;2023-03-19T09:03:49;101790.28;;;18.88;55.75
61528;BME280;47395;42.032;-8.634;2023-03-19T09:05:50;101793.94;;;18.87;55.79
61528;BME280;47395;42.032;-8.634;2023-03-19T09:07:51;101799.81;;;18.10;57.23
61528;BME280;47395;42.032;-8.634;2023-03-19T09:09:52;101790.47;;;18.17;57.10
61528;BME280;47395;42.032;-8.634;2023-03-19T09:11:53;101794.72;;;18.34;56.86
61528;BME280;47395;42.032;-8.634;2023-03-19T09:13:54;101784.53;;;18.54;56.93
61528;BME280;47395;42.032;-8.634;2023-03-19T09:15:55;101788.75;;;18.44;56.05
61528;BME280;47395;42.032;-8.634;2023-03-19T09:17:56;101791.63;;;18.68;56.21
61528;BME280;47395;42.032;-8.634;2023-03-19T09:19:57;101788.22;;;19.07;56.24
61528;BME280;47395;42.032;-8.634;2023-03-19T09:21:58;101790.47;;;19.52;55.36
61528;BME280;47395;42.032;-8.634;2023-03-19T09:23:59;101794.03;;;19.39;53.25
61528;BME280;47395;42.032;-8.634;2023-03-19T09:26:00;101787.44;;;18.91;53.45
61528;BME280;47395;42.032;-8.634;2023-03-19T09:28:01;101794.25;;;19.36;54.17
61528;BME280;47395;42.032;-8.634;2023-03-19T09:30:03;101781.81;;;19.09;54.38
61528;BME280;47395;42.032;-8.634;2023-03-19T09:32:04;101788.53;;;19.80;52.08
61528;BME280;47395;42.032;-8.634;2023-03-19T09:34:06;101787.09;;;20.13;51.51
61528;BME280;47395;42.032;-8.634;2023-03-19T09:36:08;101778.75;;;20.18;50.78
61528;BME280;47395;42.032;-8.634;2023-03-19T09:38:09;101780.38;;;20.56;50.70
61528;BME280;47395;42.032;-8.634;2023-03-19T09:40:21;101782.34;;;20.30;50.83
61528;BME280;47395;42.032;-8.634;2023-03-19T09:42:52;101785.88;;;20.55;49.94
61528;BME280;47395;42.032;-8.634;2023-03-19T09:44:55;101801.13;;;20.90;50.77
61528;BME280;47395;42.032;-8.634;2023-03-19T09:47:29;101808.22;;;20.78;50.52
61528;BME280;47395;42.032;-8.634;2023-03-19T09:49:37;101809.72;;;21.77;48.25
61528;BME280;47395;42.032;-8.634;2023-03-19T09:51:52;101802.94;;;23.15;44.65
61528;BME280;47395;42.032;-8.634;2023-03-19T09:54:01;101798.47;;;24.49;43.15
61528;BME280;47395;42.032;-8.634;2023-03-19T09:56:06;101798.88;;;25.23;40.77
61528;BME280;47395;42.032;-8.634;2023-03-19T09:58:17;101796.16;;;26.82;38.12
61528;BME280;47395;42.032;-8.634;2023-03-19T10:00:27;101802.28;;;28.15;35.02
61528;BME280;47395;42.032;-8.634;2023-03-19T10:02:40;101800.34;;;28.50;33.75
61528;BME280;47395;42.032;-8.634;2023-03-19T10:11:18;101807.19;;;32.22;28.59
61528;BME280;47395;42.032;-8.634;2023-03-19T10:13:52;101799.41;;;32.19;26.91
61528;BME280;47395;42.032;-8.634;2023-03-19T10:15:55;101798.84;;;31.26;27.83
61528;BME280;47395;42.032;-8.634;2023-03-19T10:18:20;101783.41;;;30.50;28.85
61528;BME280;47395;42.032;-8.634;2023-03-19T10:20:48;101788.09;;;30.09;30.43
61528;BME280;47395;42.032;-8.634;2023-03-19T10:22:53;101787.28;;;28.79;31.23
61528;BME280;47395;42.032;-8.634;2023-03-19T10:25:00;101788.13;;;28.54;32.32
61528;BME280;47395;42.032;-8.634;2023-03-19T10:27:12;101786.59;;;29.02;31.48
61528;BME280;47395;42.032;-8.634;2023-03-19T10:29:17;101770.72;;;29.47;30.95
61528;BME280;47395;42.032;-8.634;2023-03-19T10:33:47;101785.72;;;29.18;32.32
61528;BME280;47395;42.032;-8.634;2023-03-19T10:36:03;101794.97;;;29.49;30.86
61528;BME280;47395;42.032;-8.634;2023-03-19T10:38:24;101796.69;;;29.41;31.32
61528;BME280;47395;42.032;-8.634;2023-03-19T10:43:20;101801.72;;;30.01;29.76
61528;BME280;47395;42.032;-8.634;2023-03-19T10:45:33;101789.16;;;30.00;30.46
61528;BME280;47395;42.032;-8.634;2023-03-19T10:47:38;101782.56;;;30.26;30.49
61528;BME280;47395;42.032;-8.634;2023-03-19T10:49:40;101779.31;;;30.93;28.76
61528;BME280;47395;42.032;-8.634;2023-03-19T10:51:47;101772.13;;;30.77;29.09
61528;BME280;47395;42.032;-8.634;2023-03-19T10:53:51;101763.56;;;31.48;29.16
61528;BME280;47395;42.032;-8.634;2023-03-19T10:55:58;101771.44;;;31.43;27.80